Details From LOWI - Innsbruck Kranebitten
To GCHI - Hierro
Flight Number -
Tags Generated
Created
Modified
Stats Distance 1,798 nm / 3,330 km
Max Altitude 0 ft / 0 m
Waypoints 7
Social Downloads 2
Likes 0
Share VATSIM

Download

Looking for another format? Having issues loading an existing format? Contact us
Advertisement - Login to hide

Notes

Generated

Route

LOWI RILIP MORIL CCH HIJ OSLAD GCHI

ID Type Via Altitude Latitude Longitude Leg Dist Tot Dist Heading (true) Name
O LOWI APT - 0 ft / 0 m 47.25883˚ 11.33091˚ - 0 nm - -
RILIP FIX - 0 ft / 0 m 45.04250˚ 6.30972˚ 247 nm 247 nm 239° / 236° -
MORIL FIX - 0 ft / 0 m 43.06583˚ 2.35028˚ 208 nm 455 nm 237° / 234° -
CCH NDB - 0 ft / 0 m 40.90243˚ -1.29831˚ 208 nm 663 nm 233° / 230° CALAMOCHA NDB
HIJ VOR - 0 ft / 0 m 38.50813˚ -5.09968˚ 226 nm 890 nm 232° / 229° HINOJOSA VOR-DME
OSLAD FIX - 0 ft / 0 m 35.96667˚ -8.31417˚ 216 nm 1107 nm 226° / 224° -
O GCHI APT - 0 ft / 0 m 27.81985˚ -17.88997˚ 690 nm 1798 nm 228° / 222° -

Altitude Profile

Advertisement - Login to hide

Weather


0- 5 10 15 20 25 30 35+ Temperature / ° C

Clouds and Precipitation
Forecast for 2017-12-16 18:00 UTC. Updated 2 hours ago

Ground ~20,000 ft ~40,000 ft Winds

LOWI

Details ICAO LOWI (INN)
Name Innsbruck Kranebitten
Region Austria
Timezone Europe/Vienna (UTC+1.0)
Stats Elevation 1,906 ft / 581 m (AMSL)
Location 47.260226° 11.343967°
Runways 1
Magnetic Variation 3.020° E

METAR

LOWI 161650Z VRB02KT 2500 SN FEW007 BKN012 00/M01 Q1012 R08/19//95 NOSIG

Decode

TAF

TAF LOWI 161115Z 1612/1712 27007KT 9999 SCT060 BKN090 TX01/1613Z TNM01/1707Z BECMG 1613/1615 8000 -SN SCT030 BKN060 TEMPO 1615/1621 1500 SHSN VV008 TEMPO 1621/1703 3000 -SN BR VV010 TEMPO 1703/1712 1200 SHSN VV007 PROB40 TEMPO 1710/1712 30012G25KT

Decode

Departure Runways

ID Width Length Bearing (true) Bearing (mag) Surface Threshold Offset Overrun Length
08 148 ft / 45 m 6,545 ft / 1,995 m 81.02° 78.00° Asphalt 338 ft / 103 m 0 ft / 0 m
26 148 ft / 45 m 6,545 ft / 1,995 m 261.04° 258.02° Asphalt 0 ft / 0 m 0 ft / 0 m

GCHI

Details ICAO GCHI (VDE)
Name Hierro
Region Canary Islands
Timezone Atlantic/Canary (UTC+0.0)
Stats Elevation 337 ft / 103 m (AMSL)
Location 27.814848° -17.887052°
Runways 1
Magnetic Variation 5.628° W

METAR

GCHI 161700Z 34016KT 320V020 9999 FEW023 21/17 Q1022

Decode

TAF

TAF AMD TAF AMD GCHI 161559Z 1615/1715 02012KT 9999 FEW030 TX21/1714Z TN18/1706Z PROB40 TEMPO 1615/1713 RA

Decode

Destination Runways

ID Width Length Bearing (true) Bearing (mag) Surface Threshold Offset Overrun Length
16 98 ft / 30 m 4,110 ft / 1,253 m 152.71° 158.34° Asphalt 0 ft / 0 m 112 ft / 34 m
34 98 ft / 30 m 4,110 ft / 1,253 m 332.71° 338.34° Asphalt 0 ft / 0 m 105 ft / 32 m